This is the latest recevied weather packets stored in our database for station/object IZ2MHJ-3. If no packets are shown the sender has not sent any weather packets the latest 10 day(s).
| Time | Temp. | Humidity | Pressure | Rain* | Wind** | Luminosity | Snow |
|---|---|---|---|---|---|---|---|
| 1788475171 | 25° C | 62% | 1020.3 hPa | - | - | - | - |
| 1788473971 | 25° C | 62% | 1020.3 hPa | - | - | - | - |
| 1788472770 | 25.56° C | 62% | 1020.4 hPa | - | - | - | - |
| 1788471570 | 25.56° C | 62% | 1020.2 hPa | - | - | - | - |
| 1788470370 | 26.11° C | 59% | 1020.2 hPa | - | - | - | - |
| 1788469169 | 26.11° C | 58% | 1020.1 hPa | - | - | - | - |
| 1788467969 | 26.67° C | 57% | 1019.9 hPa | - | - | - | - |
| 1788466769 | 27.22° C | 57% | 1019.9 hPa | - | - | - | - |
| 1788465569 | 27.22° C | 57% | 1019.9 hPa | - | - | - | - |
| 1788464368 | 27.22° C | 58% | 1019.7 hPa | - | - | - | - |
| 1788463168 | 28.33° C | 55% | 1019.5 hPa | - | - | - | - |
| 1788461968 | 29.44° C | 53% | 1019.2 hPa | - | - | - | - |
| 1788460767 | 30° C | 49% | 1019 hPa | - | - | - | - |
| 1788459567 | 30° C | 48% | 1018.8 hPa | - | - | - | - |
| 1788458367 | 29.44° C | 49% | 1018.7 hPa | - | - | - | - |
| 1788457166 | 31.11° C | 46% | 1018.5 hPa | - | - | - | - |
| 1788455966 | 31.11° C | 45% | 1018.4 hPa | - | - | - | - |
| 1788454766 | 31.11° C | 46% | 1018.4 hPa | - | - | - | - |
| 1788453565 | 32.78° C | 42% | 1018.2 hPa | - | - | - | - |
| 1788452365 | 34.44° C | 38% | 1018.2 hPa | - | - | - | - |
| 1788451164 | 33.89° C | 39% | 1018.2 hPa | - | - | - | - |
| 1788449964 | 35.56° C | 36% | 1018.1 hPa | - | - | - | - |
| 1788448764 | 36.11° C | 34% | 1018.1 hPa | - | - | - | - |
| 1788447564 | 36.11° C | 34% | 1018.3 hPa | - | - | - | - |
| 1788446363 | 35.56° C | 37% | 1018.3 hPa | - | - | - | - |
* Rain since midnight (hover to see other rain measurements)
** Current wind speed in m/s (hover to see current wind gust speed)